sensor_id;sensor_type;location;lat;lon;timestamp;temperature;humidity
2623;DHT22;1321;48.690;9.022;2023-11-19T00:01:19;8.70;1.00
2623;DHT22;1321;48.690;9.022;2023-11-19T00:03:47;8.80;1.00
2623;DHT22;1321;48.690;9.022;2023-11-19T00:06:19;8.80;1.00
2623;DHT22;1321;48.690;9.022;2023-11-19T00:08:47;8.90;1.00
2623;DHT22;1321;48.690;9.022;2023-11-19T00:11:15;8.90;1.00
2623;DHT22;1321;48.690;9.022;2023-11-19T00:13:43;8.90;1.00
2623;DHT22;1321;48.690;9.022;2023-11-19T00:16:12;9.00;1.00
2623;DHT22;1321;48.690;9.022;2023-11-19T00:18:41;9.00;1.00
2623;DHT22;1321;48.690;9.022;2023-11-19T00:21:09;9.00;1.00
2623;DHT22;1321;48.690;9.022;2023-11-19T00:23:39;9.00;1.00
2623;DHT22;1321;48.690;9.022;2023-11-19T00:26:07;9.00;1.00
2623;DHT22;1321;48.690;9.022;2023-11-19T00:28:35;9.10;1.00
2623;DHT22;1321;48.690;9.022;2023-11-19T00:31:05;9.10;1.00
2623;DHT22;1321;48.690;9.022;2023-11-19T00:33:34;9.10;1.00
2623;DHT22;1321;48.690;9.022;2023-11-19T00:36:16;9.10;1.00
2623;DHT22;1321;48.690;9.022;2023-11-19T00:38:45;9.10;1.00
2623;DHT22;1321;48.690;9.022;2023-11-19T00:41:15;9.20;6.50
2623;DHT22;1321;48.690;9.022;2023-11-19T00:43:44;9.10;15.40
2623;DHT22;1321;48.690;9.022;2023-11-19T00:46:12;9.20;19.40
2623;DHT22;1321;48.690;9.022;2023-11-19T00:48:41;9.20;25.30
2623;DHT22;1321;48.690;9.022;2023-11-19T00:51:11;9.20;30.80
2623;DHT22;1321;48.690;9.022;2023-11-19T00:53:40;9.30;34.70
2623;DHT22;1321;48.690;9.022;2023-11-19T00:56:10;9.20;37.40
2623;DHT22;1321;48.690;9.022;2023-11-19T00:58:39;9.30;49.30
2623;DHT22;1321;48.690;9.022;2023-11-19T01:01:11;9.30;49.40
2623;DHT22;1321;48.690;9.022;2023-11-19T01:03:40;9.30;54.40
2623;DHT22;1321;48.690;9.022;2023-11-19T01:06:08;9.30;61.20
2623;DHT22;1321;48.690;9.022;2023-11-19T01:08:37;9.30;70.10
2623;DHT22;1321;48.690;9.022;2023-11-19T01:11:05;9.40;64.20
2623;DHT22;1321;48.690;9.022;2023-11-19T01:13:35;9.40;60.00
2623;DHT22;1321;48.690;9.022;2023-11-19T01:16:04;9.50;61.30
2623;DHT22;1321;48.690;9.022;2023-11-19T01:18:34;9.50;61.90
2623;DHT22;1321;48.690;9.022;2023-11-19T01:21:03;9.50;71.20
2623;DHT22;1321;48.690;9.022;2023-11-19T01:23:32;9.50;70.80
2623;DHT22;1321;48.690;9.022;2023-11-19T01:26:01;9.50;76.80
2623;DHT22;1321;48.690;9.022;2023-11-19T01:28:29;9.50;84.10
2623;DHT22;1321;48.690;9.022;2023-11-19T01:30:59;9.60;81.10
2623;DHT22;1321;48.690;9.022;2023-11-19T01:33:28;9.60;77.20
2623;DHT22;1321;48.690;9.022;2023-11-19T01:35:56;9.60;80.70
2623;DHT22;1321;48.690;9.022;2023-11-19T01:38:25;9.70;77.60
2623;DHT22;1321;48.690;9.022;2023-11-19T01:40:56;9.70;70.50
2623;DHT22;1321;48.690;9.022;2023-11-19T01:43:34;9.80;76.60
2623;DHT22;1321;48.690;9.022;2023-11-19T01:46:05;9.70;75.70
2623;DHT22;1321;48.690;9.022;2023-11-19T01:48:34;9.80;73.80
2623;DHT22;1321;48.690;9.022;2023-11-19T01:51:04;9.80;72.10
2623;DHT22;1321;48.690;9.022;2023-11-19T01:53:34;9.80;75.50
2623;DHT22;1321;48.690;9.022;2023-11-19T01:56:03;9.80;76.70
2623;DHT22;1321;48.690;9.022;2023-11-19T01:58:33;9.80;83.90
2623;DHT22;1321;48.690;9.022;2023-11-19T02:01:01;9.80;79.20
2623;DHT22;1321;48.690;9.022;2023-11-19T02:03:32;9.80;86.20
2623;DHT22;1321;48.690;9.022;2023-11-19T02:06:01;9.80;86.80
2623;DHT22;1321;48.690;9.022;2023-11-19T02:08:29;9.80;93.80
2623;DHT22;1321;48.690;9.022;2023-11-19T02:10:58;9.90;92.80
2623;DHT22;1321;48.690;9.022;2023-11-19T02:13:27;9.90;89.00
2623;DHT22;1321;48.690;9.022;2023-11-19T02:15:56;9.90;91.70
2623;DHT22;1321;48.690;9.022;2023-11-19T02:18:25;10.00;87.90
2623;DHT22;1321;48.690;9.022;2023-11-19T02:20:57;10.00;85.50
2623;DHT22;1321;48.690;9.022;2023-11-19T02:23:27;10.00;79.30
2623;DHT22;1321;48.690;9.022;2023-11-19T02:26:02;10.00;79.90
2623;DHT22;1321;48.690;9.022;2023-11-19T02:28:34;10.00;75.00
2623;DHT22;1321;48.690;9.022;2023-11-19T02:31:04;10.00;90.10
2623;DHT22;1321;48.690;9.022;2023-11-19T02:33:37;10.00;84.40
2623;DHT22;1321;48.690;9.022;2023-11-19T02:36:06;10.10;87.80
2623;DHT22;1321;48.690;9.022;2023-11-19T02:38:35;10.10;84.40
2623;DHT22;1321;48.690;9.022;2023-11-19T02:41:04;10.10;91.40
2623;DHT22;1321;48.690;9.022;2023-11-19T02:43:34;10.10;84.80
2623;DHT22;1321;48.690;9.022;2023-11-19T02:46:04;10.10;88.50
2623;DHT22;1321;48.690;9.022;2023-11-19T02:48:37;10.20;81.90
2623;DHT22;1321;48.690;9.022;2023-11-19T02:51:05;10.10;88.00
2623;DHT22;1321;48.690;9.022;2023-11-19T02:53:36;10.10;91.10
2623;DHT22;1321;48.690;9.022;2023-11-19T02:56:07;10.20;88.10
2623;DHT22;1321;48.690;9.022;2023-11-19T02:58:44;10.10;90.40
2623;DHT22;1321;48.690;9.022;2023-11-19T03:01:13;10.10;91.40
2623;DHT22;1321;48.690;9.022;2023-11-19T03:03:50;10.20;95.70
2623;DHT22;1321;48.690;9.022;2023-11-19T03:06:21;10.10;95.30
2623;DHT22;1321;48.690;9.022;2023-11-19T03:08:50;10.10;99.90
2623;DHT22;1321;48.690;9.022;2023-11-19T03:11:18;10.10;99.90
2623;DHT22;1321;48.690;9.022;2023-11-19T03:13:47;10.20;99.90
2623;DHT22;1321;48.690;9.022;2023-11-19T03:16:15;10.20;99.90
2623;DHT22;1321;48.690;9.022;2023-11-19T03:18:44;10.20;99.90
2623;DHT22;1321;48.690;9.022;2023-11-19T03:21:12;10.30;99.90
2623;DHT22;1321;48.690;9.022;2023-11-19T03:23:40;10.20;97.60
2623;DHT22;1321;48.690;9.022;2023-11-19T03:26:10;10.30;96.30
2623;DHT22;1321;48.690;9.022;2023-11-19T03:28:38;10.30;93.00
2623;DHT22;1321;48.690;9.022;2023-11-19T03:31:08;10.30;95.90
2623;DHT22;1321;48.690;9.022;2023-11-19T03:33:36;10.30;95.40
2623;DHT22;1321;48.690;9.022;2023-11-19T03:36:05;10.30;92.20
2623;DHT22;1321;48.690;9.022;2023-11-19T03:38:34;10.30;91.90
2623;DHT22;1321;48.690;9.022;2023-11-19T03:41:10;10.40;93.80
2623;DHT22;1321;48.690;9.022;2023-11-19T03:43:38;10.40;93.30
2623;DHT22;1321;48.690;9.022;2023-11-19T03:46:17;10.40;90.80
2623;DHT22;1321;48.690;9.022;2023-11-19T03:48:46;10.40;93.60
2623;DHT22;1321;48.690;9.022;2023-11-19T03:51:14;10.40;95.60
2623;DHT22;1321;48.690;9.022;2023-11-19T03:53:42;10.40;95.50
2623;DHT22;1321;48.690;9.022;2023-11-19T03:56:11;10.30;96.40
2623;DHT22;1321;48.690;9.022;2023-11-19T03:58:39;10.30;99.70
2623;DHT22;1321;48.690;9.022;2023-11-19T04:01:11;10.40;99.90
2623;DHT22;1321;48.690;9.022;2023-11-19T04:03:41;10.40;99.90
2623;DHT22;1321;48.690;9.022;2023-11-19T04:06:12;10.40;99.20
2623;DHT22;1321;48.690;9.022;2023-11-19T04:08:40;10.40;98.90
2623;DHT22;1321;48.690;9.022;2023-11-19T04:11:08;10.40;97.10
2623;DHT22;1321;48.690;9.022;2023-11-19T04:13:37;10.40;98.90
2623;DHT22;1321;48.690;9.022;2023-11-19T04:16:05;10.40;98.70
2623;DHT22;1321;48.690;9.022;2023-11-19T04:18:34;10.40;99.90
2623;DHT22;1321;48.690;9.022;2023-11-19T04:21:06;10.40;99.90
2623;DHT22;1321;48.690;9.022;2023-11-19T04:23:34;10.40;99.90
2623;DHT22;1321;48.690;9.022;2023-11-19T04:26:03;10.40;99.90
2623;DHT22;1321;48.690;9.022;2023-11-19T04:28:34;10.40;99.90
2623;DHT22;1321;48.690;9.022;2023-11-19T04:31:02;10.40;99.90
2623;DHT22;1321;48.690;9.022;2023-11-19T04:33:31;10.40;99.90
2623;DHT22;1321;48.690;9.022;2023-11-19T04:35:59;10.40;99.90
2623;DHT22;1321;48.690;9.022;2023-11-19T04:38:29;10.40;99.90
2623;DHT22;1321;48.690;9.022;2023-11-19T04:40:57;10.40;99.90
2623;DHT22;1321;48.690;9.022;2023-11-19T04:43:26;10.40;99.90
2623;DHT22;1321;48.690;9.022;2023-11-19T04:45:54;10.40;99.90
2623;DHT22;1321;48.690;9.022;2023-11-19T04:48:22;10.40;99.90
2623;DHT22;1321;48.690;9.022;2023-11-19T04:50:50;10.40;99.90
2623;DHT22;1321;48.690;9.022;2023-11-19T04:53:19;10.50;99.90
2623;DHT22;1321;48.690;9.022;2023-11-19T04:55:49;10.40;99.90
2623;DHT22;1321;48.690;9.022;2023-11-19T04:58:17;10.50;99.90
2623;DHT22;1321;48.690;9.022;2023-11-19T05:00:45;10.50;99.90
2623;DHT22;1321;48.690;9.022;2023-11-19T05:03:14;10.50;99.90
2623;DHT22;1321;48.690;9.022;2023-11-19T05:05:42;10.40;99.90
2623;DHT22;1321;48.690;9.022;2023-11-19T05:08:10;10.40;99.90
2623;DHT22;1321;48.690;9.022;2023-11-19T05:10:39;10.50;99.90
2623;DHT22;1321;48.690;9.022;2023-11-19T05:13:08;10.50;99.90
2623;DHT22;1321;48.690;9.022;2023-11-19T05:15:37;10.50;99.90
2623;DHT22;1321;48.690;9.022;2023-11-19T05:18:05;10.40;99.90
2623;DHT22;1321;48.690;9.022;2023-11-19T05:20:33;10.50;99.90
2623;DHT22;1321;48.690;9.022;2023-11-19T05:23:02;10.50;99.90
2623;DHT22;1321;48.690;9.022;2023-11-19T05:25:30;10.50;99.90
2623;DHT22;1321;48.690;9.022;2023-11-19T05:27:58;10.60;99.90
2623;DHT22;1321;48.690;9.022;2023-11-19T05:30:28;10.60;99.90
2623;DHT22;1321;48.690;9.022;2023-11-19T05:32:56;10.60;99.90
2623;DHT22;1321;48.690;9.022;2023-11-19T05:35:25;10.60;99.90
2623;DHT22;1321;48.690;9.022;2023-11-19T05:37:53;10.60;99.90
2623;DHT22;1321;48.690;9.022;2023-11-19T05:40:22;10.60;99.90
2623;DHT22;1321;48.690;9.022;2023-11-19T05:42:51;10.70;99.90
2623;DHT22;1321;48.690;9.022;2023-11-19T05:45:19;10.60;99.90
2623;DHT22;1321;48.690;9.022;2023-11-19T05:47:48;10.60;99.90
2623;DHT22;1321;48.690;9.022;2023-11-19T05:50:18;10.60;99.90
2623;DHT22;1321;48.690;9.022;2023-11-19T05:52:47;10.60;99.90
2623;DHT22;1321;48.690;9.022;2023-11-19T05:55:15;10.60;99.90
2623;DHT22;1321;48.690;9.022;2023-11-19T05:57:43;10.70;99.90
2623;DHT22;1321;48.690;9.022;2023-11-19T06:00:13;10.60;99.90
2623;DHT22;1321;48.690;9.022;2023-11-19T06:02:43;10.60;99.90
2623;DHT22;1321;48.690;9.022;2023-11-19T06:05:12;10.60;99.90
2623;DHT22;1321;48.690;9.022;2023-11-19T06:07:41;10.60;99.90
2623;DHT22;1321;48.690;9.022;2023-11-19T06:10:09;10.60;99.90
2623;DHT22;1321;48.690;9.022;2023-11-19T06:12:39;10.60;99.90
2623;DHT22;1321;48.690;9.022;2023-11-19T06:15:08;10.60;99.90
2623;DHT22;1321;48.690;9.022;2023-11-19T06:17:37;10.60;99.90
2623;DHT22;1321;48.690;9.022;2023-11-19T06:20:06;10.60;99.90
2623;DHT22;1321;48.690;9.022;2023-11-19T06:22:36;10.70;99.90
2623;DHT22;1321;48.690;9.022;2023-11-19T06:25:05;10.70;99.90
2623;DHT22;1321;48.690;9.022;2023-11-19T06:27:35;10.70;99.90
2623;DHT22;1321;48.690;9.022;2023-11-19T06:30:03;10.80;99.90
2623;DHT22;1321;48.690;9.022;2023-11-19T06:32:32;10.70;99.90
2623;DHT22;1321;48.690;9.022;2023-11-19T06:35:00;10.70;99.90
2623;DHT22;1321;48.690;9.022;2023-11-19T06:37:28;10.70;99.90
2623;DHT22;1321;48.690;9.022;2023-11-19T06:39:58;10.70;99.90
2623;DHT22;1321;48.690;9.022;2023-11-19T06:42:26;10.80;99.90
2623;DHT22;1321;48.690;9.022;2023-11-19T06:44:55;10.80;99.90
2623;DHT22;1321;48.690;9.022;2023-11-19T06:47:25;10.80;99.90
2623;DHT22;1321;48.690;9.022;2023-11-19T06:49:55;10.80;99.90
2623;DHT22;1321;48.690;9.022;2023-11-19T06:52:23;10.80;99.90
2623;DHT22;1321;48.690;9.022;2023-11-19T06:54:51;10.70;99.90
2623;DHT22;1321;48.690;9.022;2023-11-19T06:57:35;10.80;99.90
2623;DHT22;1321;48.690;9.022;2023-11-19T07:00:05;10.80;99.90
2623;DHT22;1321;48.690;9.022;2023-11-19T07:02:33;10.80;99.90
2623;DHT22;1321;48.690;9.022;2023-11-19T07:05:02;10.80;99.90
2623;DHT22;1321;48.690;9.022;2023-11-19T07:07:31;10.80;99.90
2623;DHT22;1321;48.690;9.022;2023-11-19T07:10:00;10.80;99.90
2623;DHT22;1321;48.690;9.022;2023-11-19T07:12:29;10.80;99.90
2623;DHT22;1321;48.690;9.022;2023-11-19T07:14:58;10.80;99.90
2623;DHT22;1321;48.690;9.022;2023-11-19T07:17:27;10.80;99.90
2623;DHT22;1321;48.690;9.022;2023-11-19T07:19:55;10.80;99.90
2623;DHT22;1321;48.690;9.022;2023-11-19T07:22:27;10.80;99.90
2623;DHT22;1321;48.690;9.022;2023-11-19T07:24:56;10.80;99.90
2623;DHT22;1321;48.690;9.022;2023-11-19T07:27:26;10.90;99.90
2623;DHT22;1321;48.690;9.022;2023-11-19T07:29:54;10.90;99.90
2623;DHT22;1321;48.690;9.022;2023-11-19T07:32:24;10.90;99.90
2623;DHT22;1321;48.690;9.022;2023-11-19T07:34:52;10.90;99.90
2623;DHT22;1321;48.690;9.022;2023-11-19T07:37:24;11.00;99.90
2623;DHT22;1321;48.690;9.022;2023-11-19T07:39:52;11.00;99.90
2623;DHT22;1321;48.690;9.022;2023-11-19T07:42:20;11.00;99.90
2623;DHT22;1321;48.690;9.022;2023-11-19T07:44:49;11.00;99.90
2623;DHT22;1321;48.690;9.022;2023-11-19T07:47:17;11.00;99.90
2623;DHT22;1321;48.690;9.022;2023-11-19T07:49:47;11.00;99.90
2623;DHT22;1321;48.690;9.022;2023-11-19T07:52:15;11.00;99.90
2623;DHT22;1321;48.690;9.022;2023-11-19T07:54:46;11.00;99.90
2623;DHT22;1321;48.690;9.022;2023-11-19T07:57:15;11.00;99.90
2623;DHT22;1321;48.690;9.022;2023-11-19T07:59:43;11.00;99.90
2623;DHT22;1321;48.690;9.022;2023-11-19T08:02:11;11.00;99.90
2623;DHT22;1321;48.690;9.022;2023-11-19T08:04:39;10.90;99.90
2623;DHT22;1321;48.690;9.022;2023-11-19T08:07:13;10.90;99.90
2623;DHT22;1321;48.690;9.022;2023-11-19T08:09:41;11.00;99.90
2623;DHT22;1321;48.690;9.022;2023-11-19T08:12:09;11.00;99.90
2623;DHT22;1321;48.690;9.022;2023-11-19T08:14:37;11.00;99.90
2623;DHT22;1321;48.690;9.022;2023-11-19T08:17:06;11.00;99.90
2623;DHT22;1321;48.690;9.022;2023-11-19T08:19:34;11.00;99.90
2623;DHT22;1321;48.690;9.022;2023-11-19T08:22:02;11.10;99.90
2623;DHT22;1321;48.690;9.022;2023-11-19T08:24:32;11.10;99.90
2623;DHT22;1321;48.690;9.022;2023-11-19T08:27:00;11.10;99.90
2623;DHT22;1321;48.690;9.022;2023-11-19T08:29:29;11.10;99.90
2623;DHT22;1321;48.690;9.022;2023-11-19T08:31:59;11.20;99.90
2623;DHT22;1321;48.690;9.022;2023-11-19T08:34:29;11.20;99.90
2623;DHT22;1321;48.690;9.022;2023-11-19T08:36:57;11.30;99.90
2623;DHT22;1321;48.690;9.022;2023-11-19T08:39:25;11.50;99.90
2623;DHT22;1321;48.690;9.022;2023-11-19T08:41:55;11.60;99.90
2623;DHT22;1321;48.690;9.022;2023-11-19T08:44:23;11.40;99.90
2623;DHT22;1321;48.690;9.022;2023-11-19T08:46:52;11.50;99.90
2623;DHT22;1321;48.690;9.022;2023-11-19T08:49:20;11.50;99.90
2623;DHT22;1321;48.690;9.022;2023-11-19T08:51:48;11.60;99.90
2623;DHT22;1321;48.690;9.022;2023-11-19T08:54:16;11.60;99.90
2623;DHT22;1321;48.690;9.022;2023-11-19T08:56:49;11.80;99.90
2623;DHT22;1321;48.690;9.022;2023-11-19T08:59:19;11.90;99.90
2623;DHT22;1321;48.690;9.022;2023-11-19T09:01:47;12.00;93.30
2623;DHT22;1321;48.690;9.022;2023-11-19T09:04:15;12.10;79.90
2623;DHT22;1321;48.690;9.022;2023-11-19T09:06:44;12.10;59.40
2623;DHT22;1321;48.690;9.022;2023-11-19T09:09:12;12.00;62.70
2623;DHT22;1321;48.690;9.022;2023-11-19T09:11:41;12.00;64.00
2623;DHT22;1321;48.690;9.022;2023-11-19T09:14:09;12.00;62.30
2623;DHT22;1321;48.690;9.022;2023-11-19T09:16:39;12.10;62.80
2623;DHT22;1321;48.690;9.022;2023-11-19T09:19:07;12.20;58.60
2623;DHT22;1321;48.690;9.022;2023-11-19T09:21:35;12.60;54.20
2623;DHT22;1321;48.690;9.022;2023-11-19T09:24:05;12.60;1.30
2623;DHT22;1321;48.690;9.022;2023-11-19T09:26:34;12.50;5.80
2623;DHT22;1321;48.690;9.022;2023-11-19T09:29:06;12.50;6.60
2623;DHT22;1321;48.690;9.022;2023-11-19T09:31:34;12.60;32.00
2623;DHT22;1321;48.690;9.022;2023-11-19T09:34:04;13.10;14.70
2623;DHT22;1321;48.690;9.022;2023-11-19T09:36:32;13.40;1.00
2623;DHT22;1321;48.690;9.022;2023-11-19T09:39:00;13.70;1.00
2623;DHT22;1321;48.690;9.022;2023-11-19T09:41:30;13.50;1.00
2623;DHT22;1321;48.690;9.022;2023-11-19T09:43:58;13.90;1.00
2623;DHT22;1321;48.690;9.022;2023-11-19T09:46:26;14.00;99.90
2623;DHT22;1321;48.690;9.022;2023-11-19T09:48:58;13.60;99.90
2623;DHT22;1321;48.690;9.022;2023-11-19T09:51:28;13.60;1.00
2623;DHT22;1321;48.690;9.022;2023-11-19T09:53:56;14.00;1.00
2623;DHT22;1321;48.690;9.022;2023-11-19T09:56:25;15.20;99.90
2623;DHT22;1321;48.690;9.022;2023-11-19T09:58:55;16.30;99.90
2623;DHT22;1321;48.690;9.022;2023-11-19T10:01:23;15.90;99.90
2623;DHT22;1321;48.690;9.022;2023-11-19T10:03:56;15.60;73.30
2623;DHT22;1321;48.690;9.022;2023-11-19T10:06:25;15.80;1.00
2623;DHT22;1321;48.690;9.022;2023-11-19T10:08:55;15.40;99.90
2623;DHT22;1321;48.690;9.022;2023-11-19T10:11:23;15.60;20.00
2623;DHT22;1321;48.690;9.022;2023-11-19T10:13:53;16.90;99.90
2623;DHT22;1321;48.690;9.022;2023-11-19T10:16:28;18.00;1.00
2623;DHT22;1321;48.690;9.022;2023-11-19T10:18:57;17.50;99.90
2623;DHT22;1321;48.690;9.022;2023-11-19T10:21:25;17.10;99.90
2623;DHT22;1321;48.690;9.022;2023-11-19T10:23:57;18.10;1.00
2623;DHT22;1321;48.690;9.022;2023-11-19T10:26:27;17.20;99.90
2623;DHT22;1321;48.690;9.022;2023-11-19T10:28:56;16.90;99.90
2623;DHT22;1321;48.690;9.022;2023-11-19T10:31:24;16.60;99.90
2623;DHT22;1321;48.690;9.022;2023-11-19T10:33:54;16.10;99.90
2623;DHT22;1321;48.690;9.022;2023-11-19T10:36:22;17.20;99.90
2623;DHT22;1321;48.690;9.022;2023-11-19T10:38:52;18.00;1.00
2623;DHT22;1321;48.690;9.022;2023-11-19T10:41:29;17.50;1.00
2623;DHT22;1321;48.690;9.022;2023-11-19T10:43:58;17.70;1.00
2623;DHT22;1321;48.690;9.022;2023-11-19T10:46:37;17.10;1.00
2623;DHT22;1321;48.690;9.022;2023-11-19T10:49:06;16.50;45.40
2623;DHT22;1321;48.690;9.022;2023-11-19T10:51:35;16.10;99.90
2623;DHT22;1321;48.690;9.022;2023-11-19T10:54:04;15.80;99.90
2623;DHT22;1321;48.690;9.022;2023-11-19T10:56:35;15.60;1.00
2623;DHT22;1321;48.690;9.022;2023-11-19T10:59:03;15.50;99.90
2623;DHT22;1321;48.690;9.022;2023-11-19T11:01:52;15.50;99.90
2623;DHT22;1321;48.690;9.022;2023-11-19T11:04:24;15.10;1.00
2623;DHT22;1321;48.690;9.022;2023-11-19T11:06:54;15.00;1.00
2623;DHT22;1321;48.690;9.022;2023-11-19T11:09:26;14.90;1.00
2623;DHT22;1321;48.690;9.022;2023-11-19T11:11:57;14.80;1.00
2623;DHT22;1321;48.690;9.022;2023-11-19T11:14:27;14.80;1.00
2623;DHT22;1321;48.690;9.022;2023-11-19T11:16:56;14.70;1.00
2623;DHT22;1321;48.690;9.022;2023-11-19T11:19:26;14.90;1.00
2623;DHT22;1321;48.690;9.022;2023-11-19T11:21:55;15.10;1.00
2623;DHT22;1321;48.690;9.022;2023-11-19T11:24:44;15.10;1.00
2623;DHT22;1321;48.690;9.022;2023-11-19T11:27:48;15.10;99.90
2623;DHT22;1321;48.690;9.022;2023-11-19T11:30:29;14.90;99.90
2623;DHT22;1321;48.690;9.022;2023-11-19T11:33:17;14.80;99.90
2623;DHT22;1321;48.690;9.022;2023-11-19T11:35:55;14.80;1.00
2623;DHT22;1321;48.690;9.022;2023-11-19T11:38:28;14.70;1.00
2623;DHT22;1321;48.690;9.022;2023-11-19T11:41:18;14.60;1.00
2623;DHT22;1321;48.690;9.022;2023-11-19T11:43:49;14.50;1.00
2623;DHT22;1321;48.690;9.022;2023-11-19T11:46:55;14.50;1.00
2623;DHT22;1321;48.690;9.022;2023-11-19T11:49:28;14.50;1.00
2623;DHT22;1321;48.690;9.022;2023-11-19T11:52:01;14.40;1.00
2623;DHT22;1321;48.690;9.022;2023-11-19T11:54:30;14.50;99.90
2623;DHT22;1321;48.690;9.022;2023-11-19T11:57:11;14.50;99.90
2623;DHT22;1321;48.690;9.022;2023-11-19T11:59:49;14.50;99.90
2623;DHT22;1321;48.690;9.022;2023-11-19T12:02:19;14.50;1.00
2623;DHT22;1321;48.690;9.022;2023-11-19T12:04:49;14.50;99.90
2623;DHT22;1321;48.690;9.022;2023-11-19T12:07:19;14.50;1.00
2623;DHT22;1321;48.690;9.022;2023-11-19T12:09:51;14.50;1.00
2623;DHT22;1321;48.690;9.022;2023-11-19T12:12:22;14.60;99.90
2623;DHT22;1321;48.690;9.022;2023-11-19T12:15:08;14.50;99.90
2623;DHT22;1321;48.690;9.022;2023-11-19T12:17:47;14.50;99.90
2623;DHT22;1321;48.690;9.022;2023-11-19T12:20:22;14.60;99.90
2623;DHT22;1321;48.690;9.022;2023-11-19T12:22:54;14.60;99.90
2623;DHT22;1321;48.690;9.022;2023-11-19T12:25:25;14.60;99.90
2623;DHT22;1321;48.690;9.022;2023-11-19T12:27:54;14.50;99.90
2623;DHT22;1321;48.690;9.022;2023-11-19T12:30:24;14.60;99.90
2623;DHT22;1321;48.690;9.022;2023-11-19T12:32:54;14.60;99.90
2623;DHT22;1321;48.690;9.022;2023-11-19T12:35:22;14.60;99.90
2623;DHT22;1321;48.690;9.022;2023-11-19T12:37:52;14.60;59.70
2623;DHT22;1321;48.690;9.022;2023-11-19T12:40:22;14.60;47.40
2623;DHT22;1321;48.690;9.022;2023-11-19T12:42:51;14.60;99.90
2623;DHT22;1321;48.690;9.022;2023-11-19T12:45:23;14.60;99.90
2623;DHT22;1321;48.690;9.022;2023-11-19T12:48:04;14.70;99.90
2623;DHT22;1321;48.690;9.022;2023-11-19T12:50:50;14.60;1.00
2623;DHT22;1321;48.690;9.022;2023-11-19T12:53:18;14.70;1.00
2623;DHT22;1321;48.690;9.022;2023-11-19T12:55:47;14.60;1.00
2623;DHT22;1321;48.690;9.022;2023-11-19T12:58:31;14.60;1.00
2623;DHT22;1321;48.690;9.022;2023-11-19T13:01:02;14.70;1.00
2623;DHT22;1321;48.690;9.022;2023-11-19T13:03:31;14.70;1.00
2623;DHT22;1321;48.690;9.022;2023-11-19T13:06:05;14.80;1.00
2623;DHT22;1321;48.690;9.022;2023-11-19T13:08:38;14.80;1.00
2623;DHT22;1321;48.690;9.022;2023-11-19T13:11:07;14.90;1.00
2623;DHT22;1321;48.690;9.022;2023-11-19T13:13:55;14.90;1.00
2623;DHT22;1321;48.690;9.022;2023-11-19T13:16:26;15.00;1.00
2623;DHT22;1321;48.690;9.022;2023-11-19T13:18:56;15.00;1.00
2623;DHT22;1321;48.690;9.022;2023-11-19T13:21:25;15.00;1.00
2623;DHT22;1321;48.690;9.022;2023-11-19T13:23:53;15.00;1.00
2623;DHT22;1321;48.690;9.022;2023-11-19T13:26:21;15.00;1.00
2623;DHT22;1321;48.690;9.022;2023-11-19T13:28:50;15.00;1.00
2623;DHT22;1321;48.690;9.022;2023-11-19T13:31:18;15.10;1.00
2623;DHT22;1321;48.690;9.022;2023-11-19T13:33:48;15.10;1.00
2623;DHT22;1321;48.690;9.022;2023-11-19T13:36:16;15.00;1.00
2623;DHT22;1321;48.690;9.022;2023-11-19T13:38:44;15.10;1.00
2623;DHT22;1321;48.690;9.022;2023-11-19T13:41:14;15.10;1.00
2623;DHT22;1321;48.690;9.022;2023-11-19T13:43:42;15.00;1.00
2623;DHT22;1321;48.690;9.022;2023-11-19T13:46:11;15.10;1.00
2623;DHT22;1321;48.690;9.022;2023-11-19T13:48:39;15.00;1.00
2623;DHT22;1321;48.690;9.022;2023-11-19T13:51:09;15.00;1.00
2623;DHT22;1321;48.690;9.022;2023-11-19T13:53:37;15.00;1.00
2623;DHT22;1321;48.690;9.022;2023-11-19T13:56:08;15.00;1.00
2623;DHT22;1321;48.690;9.022;2023-11-19T13:58:36;15.10;1.00
2623;DHT22;1321;48.690;9.022;2023-11-19T14:01:05;15.10;1.00
2623;DHT22;1321;48.690;9.022;2023-11-19T14:03:34;14.90;1.00
2623;DHT22;1321;48.690;9.022;2023-11-19T14:06:03;15.00;1.00
2623;DHT22;1321;48.690;9.022;2023-11-19T14:08:32;15.10;1.00
2623;DHT22;1321;48.690;9.022;2023-11-19T14:11:01;15.10;1.00
2623;DHT22;1321;48.690;9.022;2023-11-19T14:13:29;15.10;1.00
2623;DHT22;1321;48.690;9.022;2023-11-19T14:15:57;15.10;1.00
2623;DHT22;1321;48.690;9.022;2023-11-19T14:18:26;15.10;1.00
2623;DHT22;1321;48.690;9.022;2023-11-19T14:20:54;15.00;99.90
2623;DHT22;1321;48.690;9.022;2023-11-19T14:23:22;15.00;99.90
2623;DHT22;1321;48.690;9.022;2023-11-19T14:25:52;15.00;99.90
2623;DHT22;1321;48.690;9.022;2023-11-19T14:28:20;15.00;1.00
2623;DHT22;1321;48.690;9.022;2023-11-19T14:30:49;14.90;1.00
2623;DHT22;1321;48.690;9.022;2023-11-19T14:33:24;14.90;1.00
2623;DHT22;1321;48.690;9.022;2023-11-19T14:35:52;14.90;1.00
2623;DHT22;1321;48.690;9.022;2023-11-19T14:38:20;15.00;1.00
2623;DHT22;1321;48.690;9.022;2023-11-19T14:40:48;14.90;1.00
2623;DHT22;1321;48.690;9.022;2023-11-19T14:43:18;14.90;1.00
2623;DHT22;1321;48.690;9.022;2023-11-19T14:45:46;14.90;1.00
2623;DHT22;1321;48.690;9.022;2023-11-19T14:48:16;14.90;1.00
2623;DHT22;1321;48.690;9.022;2023-11-19T14:50:45;14.80;99.90
2623;DHT22;1321;48.690;9.022;2023-11-19T14:53:13;14.80;99.90
2623;DHT22;1321;48.690;9.022;2023-11-19T14:55:42;14.70;99.90
2623;DHT22;1321;48.690;9.022;2023-11-19T14:58:10;14.60;99.90
2623;DHT22;1321;48.690;9.022;2023-11-19T15:00:44;14.60;99.90
2623;DHT22;1321;48.690;9.022;2023-11-19T15:03:13;14.60;99.90
2623;DHT22;1321;48.690;9.022;2023-11-19T15:05:43;14.60;99.90
2623;DHT22;1321;48.690;9.022;2023-11-19T15:08:12;14.60;99.90
2623;DHT22;1321;48.690;9.022;2023-11-19T15:10:42;14.60;99.90
2623;DHT22;1321;48.690;9.022;2023-11-19T15:13:11;14.50;99.90
2623;DHT22;1321;48.690;9.022;2023-11-19T15:15:40;14.50;99.90
2623;DHT22;1321;48.690;9.022;2023-11-19T15:18:12;14.40;99.90
2623;DHT22;1321;48.690;9.022;2023-11-19T15:20:40;14.30;99.90
2623;DHT22;1321;48.690;9.022;2023-11-19T15:23:08;14.30;99.90
2623;DHT22;1321;48.690;9.022;2023-11-19T15:25:36;14.20;99.90
2623;DHT22;1321;48.690;9.022;2023-11-19T15:28:05;14.20;99.90
2623;DHT22;1321;48.690;9.022;2023-11-19T15:30:33;14.10;99.90
2623;DHT22;1321;48.690;9.022;2023-11-19T15:33:01;14.10;99.90
2623;DHT22;1321;48.690;9.022;2023-11-19T15:35:30;14.00;99.90
2623;DHT22;1321;48.690;9.022;2023-11-19T15:37:59;14.00;99.90
2623;DHT22;1321;48.690;9.022;2023-11-19T15:40:27;14.00;99.90
2623;DHT22;1321;48.690;9.022;2023-11-19T15:42:55;13.90;99.90
2623;DHT22;1321;48.690;9.022;2023-11-19T15:45:24;13.90;99.90
2623;DHT22;1321;48.690;9.022;2023-11-19T15:47:52;13.80;99.90
2623;DHT22;1321;48.690;9.022;2023-11-19T15:50:22;13.80;99.90
2623;DHT22;1321;48.690;9.022;2023-11-19T15:52:51;13.80;1.00
2623;DHT22;1321;48.690;9.022;2023-11-19T15:55:19;13.70;1.00
2623;DHT22;1321;48.690;9.022;2023-11-19T15:57:48;13.70;1.00
2623;DHT22;1321;48.690;9.022;2023-11-19T16:00:17;13.60;1.00
2623;DHT22;1321;48.690;9.022;2023-11-19T16:02:48;13.60;1.00
2623;DHT22;1321;48.690;9.022;2023-11-19T16:05:17;13.60;1.00
2623;DHT22;1321;48.690;9.022;2023-11-19T16:07:45;13.50;1.00
2623;DHT22;1321;48.690;9.022;2023-11-19T16:10:15;13.50;1.00
2623;DHT22;1321;48.690;9.022;2023-11-19T16:12:51;13.50;1.00
2623;DHT22;1321;48.690;9.022;2023-11-19T16:15:19;13.40;1.00
2623;DHT22;1321;48.690;9.022;2023-11-19T16:17:50;13.30;1.00
2623;DHT22;1321;48.690;9.022;2023-11-19T16:20:19;13.30;1.00
2623;DHT22;1321;48.690;9.022;2023-11-19T16:22:47;13.30;1.00
2623;DHT22;1321;48.690;9.022;2023-11-19T16:25:18;13.30;1.00
2623;DHT22;1321;48.690;9.022;2023-11-19T16:27:46;13.20;1.00